createdAt,value
2022-09-04T00:02:33.157Z,100089.06
2022-09-04T00:05:04.889Z,100095.28
2022-09-04T00:07:40.810Z,100093.75
2022-09-04T00:10:17.545Z,100095.19
2022-09-04T00:12:49.768Z,100093.69
2022-09-04T00:15:22.538Z,100093.69
2022-09-04T00:17:57.604Z,100095.56
2022-09-04T00:20:35.376Z,100096.25
2022-09-04T00:23:08.034Z,100101.22
2022-09-04T00:25:44.396Z,100098.75
2022-09-04T00:28:18.416Z,100101.81
2022-09-04T00:30:56.909Z,100093.09
2022-09-04T00:33:31.321Z,100109.84
2022-09-04T00:36:04.139Z,100101.34
2022-09-04T00:38:42.493Z,100107.13
2022-09-04T00:41:22.712Z,100102.28
2022-09-04T00:44:08.589Z,100109.22
2022-09-04T00:47:07.010Z,100112.41
2022-09-04T00:49:50.847Z,100122.31
2022-09-04T00:52:36.604Z,100125.84
2022-09-04T00:55:28.731Z,100118.78
2022-09-04T00:58:08.693Z,100123.59
2022-09-04T01:00:39.541Z,100125.25
2022-09-04T01:03:42.533Z,100121.94
2022-09-04T01:06:22.163Z,100123.09
2022-09-04T01:09:17.278Z,100136.75
2022-09-04T01:11:56.001Z,100139.00
2022-09-04T01:14:34.424Z,100136.13
2022-09-04T01:17:14.042Z,100135.66
2022-09-04T01:19:51.679Z,100129.44
2022-09-04T01:22:41.334Z,100131.06
2022-09-04T01:25:27.938Z,100132.38
2022-09-04T01:28:03.411Z,100141.91
2022-09-04T01:30:34.705Z,100136.97
2022-09-04T01:33:10.076Z,100146.75
2022-09-04T01:35:45.228Z,100143.22
2022-09-04T01:38:18.911Z,100138.03
2022-09-04T01:40:52.474Z,100146.84
2022-09-04T01:43:24.150Z,100149.81
2022-09-04T01:46:20.023Z,100151.00
2022-09-04T01:48:54.226Z,100158.47
2022-09-04T01:51:33.988Z,100148.88
2022-09-04T01:54:13.554Z,100143.50
2022-09-04T01:56:47.379Z,100136.78
2022-09-04T01:59:27.024Z,100150.22
2022-09-04T02:02:03.797Z,100146.69
2022-09-04T02:04:41.172Z,100147.41
2022-09-04T02:07:26.210Z,100146.09
2022-09-04T02:10:07.950Z,100145.84
2022-09-04T02:12:43.104Z,100150.78
2022-09-04T02:15:41.187Z,100149.25
2022-09-04T02:18:22.192Z,100153.84
2022-09-04T02:20:57.284Z,100160.78
2022-09-04T02:23:35.805Z,100159.88
2022-09-04T02:26:10.327Z,100159.97
2022-09-04T02:28:48.505Z,100159.50
2022-09-04T02:31:29.258Z,100163.16
2022-09-04T02:34:06.386Z,100158.06
2022-09-04T02:36:40.985Z,100156.06
2022-09-04T02:39:18.696Z,100157.25
2022-09-04T02:41:58.254Z,100162.56
2022-09-04T02:44:36.815Z,100163.25
2022-09-04T02:47:19.215Z,100161.63
2022-09-04T02:49:59.547Z,100161.16
2022-09-04T02:52:47.469Z,100154.81
2022-09-04T02:55:30.378Z,100165.53
2022-09-04T02:58:08.842Z,100153.16
2022-09-04T03:00:45.936Z,100162.38
2022-09-04T03:03:19.745Z,100163.78
2022-09-04T03:05:54.356Z,100154.69
2022-09-04T03:08:26.529Z,100164.50
2022-09-04T03:10:59.520Z,100168.47
2022-09-04T03:13:31.814Z,100161.66
2022-09-04T03:16:06.444Z,100169.91
2022-09-04T03:18:54.394Z,100181.69
2022-09-04T03:21:26.137Z,100175.44
2022-09-04T03:24:00.628Z,100182.16
2022-09-04T03:26:31.059Z,100179.69
2022-09-04T03:29:11.165Z,100180.72
2022-09-04T03:31:46.895Z,100175.19
2022-09-04T03:34:25.273Z,100185.56
2022-09-04T03:37:11.779Z,100183.91
2022-09-04T03:39:50.705Z,100182.75
2022-09-04T03:42:32.413Z,100185.47
2022-09-04T03:45:13.043Z,100183.56
2022-09-04T03:47:51.456Z,100186.16
2022-09-04T03:50:29.432Z,100186.53
2022-09-04T03:53:06.811Z,100195.09
2022-09-04T03:56:03.838Z,100189.31
2022-09-04T03:58:45.999Z,100189.44
2022-09-04T04:01:25.145Z,100191.31
2022-09-04T04:04:11.339Z,100192.03
2022-09-04T04:06:49.849Z,100195.47
2022-09-04T04:09:40.404Z,100193.19
2022-09-04T04:12:34.982Z,100200.88
2022-09-04T04:15:20.272Z,100201.81
2022-09-04T04:18:19.392Z,100207.47
2022-09-04T04:20:59.734Z,100206.91
2022-09-04T04:24:02.312Z,100204.91
2022-09-04T04:26:40.646Z,100206.66
2022-09-04T04:29:43.328Z,100204.75
2022-09-04T04:32:29.578Z,100205.91
2022-09-04T04:35:11.430Z,100215.34
2022-09-04T04:37:51.742Z,100218.75
2022-09-04T04:40:33.410Z,100224.28
2022-09-04T04:43:09.598Z,100228.88
2022-09-04T04:45:50.496Z,100230.66
2022-09-04T04:48:48.578Z,100248.19
2022-09-04T04:51:32.007Z,100247.88
2022-09-04T04:54:14.112Z,100256.81
2022-09-04T04:56:51.714Z,100262.69
2022-09-04T04:59:28.286Z,100262.47
2022-09-04T05:02:09.308Z,100259.41
2022-09-04T05:04:46.133Z,100263.53
2022-09-04T05:07:23.632Z,100269.28
2022-09-04T05:10:02.806Z,100266.38
2022-09-04T05:12:49.407Z,100268.84
2022-09-04T05:15:26.361Z,100276.72
2022-09-04T05:17:58.353Z,100277.38
2022-09-04T05:20:34.208Z,100286.47
2022-09-04T05:23:13.073Z,100286.25
2022-09-04T05:25:47.273Z,100293.31
2022-09-04T05:28:28.016Z,100293.66
2022-09-04T05:31:06.962Z,100302.78
2022-09-04T05:33:41.434Z,100308.22
2022-09-04T05:36:17.406Z,100306.34
2022-09-04T05:38:55.768Z,100315.53
2022-09-04T05:41:37.489Z,100321.41
2022-09-04T05:44:27.291Z,100317.16
2022-09-04T05:47:05.929Z,100316.00
2022-09-04T05:50:02.428Z,100319.00
2022-09-04T05:52:42.257Z,100327.22
2022-09-04T05:55:25.045Z,100329.34
2022-09-04T05:58:19.432Z,100325.84
2022-09-04T06:01:00.411Z,100330.44
2022-09-04T06:03:38.933Z,100326.56
2022-09-04T06:06:22.321Z,100330.97
2022-09-04T06:09:28.204Z,100325.03
2022-09-04T06:12:19.243Z,100330.25
2022-09-04T06:15:16.896Z,100337.56
2022-09-04T06:17:56.643Z,100333.06
2022-09-04T06:20:39.724Z,100343.69
2022-09-04T06:23:21.670Z,100352.41
2022-09-04T06:26:18.922Z,100357.69
2022-09-04T06:29:06.639Z,100350.09
2022-09-04T06:31:54.879Z,100352.72
2022-09-04T06:34:36.367Z,100355.13
2022-09-04T06:37:17.554Z,100357.06
2022-09-04T06:40:02.356Z,100366.00
2022-09-04T06:42:49.867Z,100368.00
2022-09-04T06:45:28.424Z,100366.94
2022-09-04T06:48:09.508Z,100369.38
2022-09-04T06:50:52.127Z,100371.38
2022-09-04T06:53:32.150Z,100376.88
2022-09-04T06:56:11.389Z,100374.91
2022-09-04T06:59:13.775Z,100379.22
2022-09-04T07:01:50.641Z,100378.09
2022-09-04T07:04:32.516Z,100380.56
2022-09-04T07:07:10.557Z,100384.16
2022-09-04T07:09:43.884Z,100388.63
2022-09-04T07:12:38.549Z,100389.38
2022-09-04T07:15:36.788Z,100390.81
2022-09-04T07:18:13.537Z,100386.16
2022-09-04T07:20:50.149Z,100390.84
2022-09-04T07:23:35.980Z,100391.94
2022-09-04T07:26:17.210Z,100402.56
2022-09-04T07:29:08.933Z,100410.97
2022-09-04T07:31:42.973Z,100411.22
2022-09-04T07:34:17.670Z,100416.16
2022-09-04T07:36:54.274Z,100415.97
2022-09-04T07:39:30.599Z,100425.13
2022-09-04T07:42:05.921Z,100418.59
2022-09-04T07:44:42.183Z,100421.03
2022-09-04T07:47:18.279Z,100423.94
2022-09-04T07:49:59.110Z,100423.75
2022-09-04T07:52:45.342Z,100413.22
2022-09-04T07:55:25.013Z,100423.28
2022-09-04T07:58:28.230Z,100421.56
2022-09-04T08:01:10.360Z,100429.13
2022-09-04T08:03:56.329Z,100426.53
2022-09-04T08:06:31.166Z,100423.06
2022-09-04T08:09:28.901Z,100439.22
2022-09-04T08:12:31.637Z,100436.81
2022-09-04T08:15:11.743Z,100442.31
2022-09-04T08:18:03.368Z,100448.91
2022-09-04T08:20:42.806Z,100455.59
2022-09-04T08:23:30.085Z,100458.66
2022-09-04T08:26:14.104Z,100450.38
2022-09-04T08:28:58.940Z,100461.16
2022-09-04T08:31:31.943Z,100463.81
2022-09-04T08:34:42.360Z,100456.13
2022-09-04T08:37:22.358Z,100464.03
2022-09-04T08:40:14.861Z,100466.19
2022-09-04T08:43:16.790Z,100464.22
2022-09-04T08:46:06.374Z,100461.78
2022-09-04T08:49:10.410Z,100462.97
2022-09-04T08:52:19.013Z,100472.38
2022-09-04T08:55:18.247Z,100472.50
2022-09-04T08:58:19.643Z,100465.91
2022-09-04T09:01:08.477Z,100472.31
2022-09-04T09:04:15.686Z,100469.16
2022-09-04T09:07:06.182Z,100469.00
2022-09-04T09:09:57.548Z,100473.25
2022-09-04T09:12:54.326Z,100469.22
2022-09-04T09:15:52.390Z,100460.38
2022-09-04T09:18:36.998Z,100448.44
2022-09-04T09:21:11.491Z,100462.72
2022-09-04T09:23:47.882Z,100464.69
2022-09-04T09:26:29.311Z,100463.06
2022-09-04T09:29:43.879Z,100462.25
2022-09-04T09:32:44.021Z,100465.47
2022-09-04T09:35:38.077Z,100464.16
2022-09-04T09:38:32.459Z,100453.19
2022-09-04T09:41:34.317Z,100447.16
2022-09-04T09:44:43.052Z,100440.88
2022-09-04T09:47:39.582Z,100447.38
2022-09-04T09:50:48.563Z,100445.22
2022-09-04T09:53:56.872Z,100429.38
2022-09-04T09:57:01.754Z,100426.09
2022-09-04T09:59:55.030Z,100434.84
2022-09-04T10:02:55.343Z,100433.72
2022-09-04T10:05:59.120Z,100441.06
2022-09-04T10:08:51.821Z,100436.66
2022-09-04T10:12:00.538Z,100435.63
2022-09-04T10:14:58.625Z,100436.16
2022-09-04T10:17:57.536Z,100429.38
2022-09-04T10:20:58.434Z,100431.03
2022-09-04T10:23:45.187Z,100443.91
2022-09-04T10:26:44.106Z,100426.38
2022-09-04T10:29:49.828Z,100423.91
2022-09-04T10:32:45.764Z,100427.13
2022-09-04T10:35:25.350Z,100420.81
2022-09-04T10:38:17.729Z,100424.66
2022-09-04T10:41:08.971Z,100429.03
2022-09-04T10:43:57.153Z,100429.34
2022-09-04T10:46:30.159Z,100421.69
2022-09-04T10:49:15.523Z,100419.22
2022-09-04T10:52:20.107Z,100411.00
2022-09-04T10:55:26.661Z,100416.47
2022-09-04T10:58:39.850Z,100420.31
2022-09-04T11:01:44.473Z,100420.03
2022-09-04T11:04:45.736Z,100415.91
2022-09-04T11:07:37.786Z,100416.72
2022-09-04T11:10:19.628Z,100419.13
2022-09-04T11:13:25.315Z,100411.81
2022-09-04T11:16:09.451Z,100416.09
2022-09-04T11:19:10.476Z,100410.88
2022-09-04T11:22:23.709Z,100405.56
2022-09-04T11:25:26.948Z,100395.91
2022-09-04T11:28:20.447Z,100394.00
2022-09-04T11:31:15.797Z,100399.22
2022-09-04T11:34:16.452Z,100399.47
2022-09-04T11:37:11.958Z,100391.13
2022-09-04T11:40:18.862Z,100389.78
2022-09-04T11:43:13.787Z,100391.13
2022-09-04T11:46:04.838Z,100381.84
2022-09-04T11:49:17.122Z,100384.47
2022-09-04T11:52:28.162Z,100382.75
2022-09-04T11:55:14.131Z,100373.69
2022-09-04T11:57:54.411Z,100377.88
2022-09-04T12:00:23.296Z,100373.84
2022-09-04T12:03:17.633Z,100376.59
2022-09-04T12:05:56.139Z,100374.31
2022-09-04T12:08:44.011Z,100376.38
2022-09-04T12:11:37.356Z,100374.50
2022-09-04T12:14:19.947Z,100369.66
2022-09-04T12:17:41.280Z,100372.91
2022-09-04T12:20:45.291Z,100370.22
2022-09-04T12:23:32.409Z,100370.38
2022-09-04T12:26:27.042Z,100376.78
2022-09-04T12:29:22.141Z,100372.69
2022-09-04T12:32:20.468Z,100371.25
2022-09-04T12:35:17.401Z,100368.72
2022-09-04T12:38:07.108Z,100366.56
2022-09-04T12:40:35.546Z,100372.34
2022-09-04T12:43:25.966Z,100367.28
2022-09-04T12:46:06.208Z,100364.84
2022-09-04T12:48:42.492Z,100366.50
2022-09-04T12:51:14.193Z,100361.59
2022-09-04T12:53:58.514Z,100368.94
2022-09-04T12:56:42.808Z,100367.00
2022-09-04T12:59:31.047Z,100361.28
2022-09-04T13:02:05.828Z,100367.22
2022-09-04T13:04:45.440Z,100359.56
2022-09-04T13:07:31.605Z,100369.44
2022-09-04T13:10:12.637Z,100361.84
2022-09-04T13:12:48.921Z,100363.91
2022-09-04T13:15:40.396Z,100360.00
2022-09-04T13:18:21.466Z,100359.22
2022-09-04T13:20:55.705Z,100366.91
2022-09-04T13:23:37.762Z,100358.13
2022-09-04T13:26:25.060Z,100368.38
2022-09-04T13:29:04.087Z,100362.19
2022-09-04T13:32:00.319Z,100363.31
2022-09-04T13:34:38.404Z,100365.00
2022-09-04T13:37:14.943Z,100358.84
2022-09-04T13:40:19.829Z,100351.56
2022-09-04T13:43:19.239Z,100351.38
2022-09-04T13:45:51.934Z,100355.06
2022-09-04T13:48:37.326Z,100350.59
2022-09-04T13:51:13.771Z,100339.06
2022-09-04T13:53:55.594Z,100338.13
2022-09-04T13:56:29.418Z,100343.75
2022-09-04T13:59:09.436Z,100344.16
2022-09-04T14:01:45.815Z,100346.09
2022-09-04T14:04:23.606Z,100341.41
2022-09-04T14:06:51.324Z,100348.13
2022-09-04T14:09:18.970Z,100339.47
2022-09-04T14:12:09.496Z,100349.81
2022-09-04T14:15:00.034Z,100342.47
2022-09-04T14:17:37.161Z,100347.63
2022-09-04T14:20:16.783Z,100343.94
2022-09-04T14:22:58.928Z,100338.97
2022-09-04T14:25:35.175Z,100341.69
2022-09-04T14:28:13.185Z,100345.13
2022-09-04T14:30:50.672Z,100341.84
2022-09-04T14:33:35.867Z,100344.03
2022-09-04T14:36:22.096Z,100342.66
2022-09-04T14:39:15.838Z,100347.31
2022-09-04T14:42:02.828Z,100344.81
2022-09-04T14:44:48.395Z,100346.91
2022-09-04T14:47:27.995Z,100348.50
2022-09-04T14:49:57.636Z,100352.22
2022-09-04T14:52:35.501Z,100349.69
2022-09-04T14:55:13.979Z,100354.94
2022-09-04T14:57:46.106Z,100346.53
2022-09-04T15:00:17.357Z,100350.09
2022-09-04T15:02:50.396Z,100351.22
2022-09-04T15:05:23.242Z,100340.44
2022-09-04T15:07:59.267Z,100335.75
2022-09-04T15:10:47.469Z,100342.31
2022-09-04T15:13:48.680Z,100340.84
2022-09-04T15:16:25.014Z,100342.81
2022-09-04T15:18:58.942Z,100344.19
2022-09-04T15:21:35.492Z,100345.88
2022-09-04T15:24:14.950Z,100348.25
2022-09-04T15:26:47.081Z,100346.25
2022-09-04T15:29:21.043Z,100349.06
2022-09-04T15:31:49.475Z,100349.06
2022-09-04T15:34:21.739Z,100348.03
2022-09-04T15:36:50.612Z,100353.44
2022-09-04T15:39:30.255Z,100349.16
2022-09-04T15:41:57.930Z,100347.25
2022-09-04T15:44:30.582Z,100348.91
2022-09-04T15:47:04.742Z,100351.34
2022-09-04T15:49:44.843Z,100355.47
2022-09-04T15:52:29.589Z,100339.59
2022-09-04T15:55:09.230Z,100341.28
2022-09-04T15:57:49.886Z,100343.25
2022-09-04T16:00:23.281Z,100336.13
2022-09-04T16:02:59.319Z,100342.75
2022-09-04T16:05:33.436Z,100344.41
2022-09-04T16:08:06.134Z,100338.47
2022-09-04T16:10:54.805Z,100337.94
2022-09-04T16:13:34.721Z,100335.13
2022-09-04T16:16:09.748Z,100334.44
2022-09-04T16:18:52.190Z,100339.81
2022-09-04T16:21:32.274Z,100339.81
2022-09-04T16:24:07.936Z,100334.34
2022-09-04T16:26:39.223Z,100341.53
2022-09-04T16:29:15.811Z,100345.47
2022-09-04T16:31:53.077Z,100343.63
2022-09-04T16:34:24.373Z,100340.63
2022-09-04T16:37:01.883Z,100342.56
2022-09-04T16:39:38.699Z,100345.25
2022-09-04T16:42:19.599Z,100348.06
2022-09-04T16:44:52.347Z,100343.09
2022-09-04T16:47:29.105Z,100335.47
2022-09-04T16:50:03.530Z,100344.81
2022-09-04T16:52:45.550Z,100348.97
2022-09-04T16:55:17.236Z,100347.06
2022-09-04T16:58:07.116Z,100344.91
2022-09-04T17:00:56.213Z,100349.56
2022-09-04T17:03:44.800Z,100347.66
2022-09-04T17:06:23.927Z,100348.75
2022-09-04T17:08:59.544Z,100343.25
2022-09-04T17:11:37.379Z,100344.91
2022-09-04T17:14:14.868Z,100339.78
2022-09-04T17:16:53.545Z,100340.69
2022-09-04T17:19:22.083Z,100330.84
2022-09-04T17:28:57.615Z,100342.19
2022-09-04T17:29:07.542Z,100335.78
2022-09-04T17:29:13.394Z,100335.09
2022-09-04T17:31:25.811Z,100336.63
2022-09-04T17:40:37.325Z,100333.19
2022-09-04T17:40:41.464Z,100332.84
2022-09-04T17:40:51.771Z,100337.81
2022-09-04T17:42:41.201Z,100346.09
2022-09-04T17:45:39.162Z,100344.47
2022-09-04T17:48:24.085Z,100335.16
2022-09-04T17:50:55.560Z,100337.91
2022-09-04T17:53:34.052Z,100345.56
2022-09-04T17:56:09.195Z,100344.47
2022-09-04T17:58:42.866Z,100342.00
2022-09-04T18:01:18.228Z,100351.59
2022-09-04T18:04:20.640Z,100346.66
2022-09-04T18:06:55.549Z,100353.19
2022-09-04T18:09:28.627Z,100351.53
2022-09-04T18:12:11.053Z,100356.16
2022-09-04T18:15:11.754Z,100357.25
2022-09-04T18:17:48.363Z,100361.56
2022-09-04T18:20:28.696Z,100370.03
2022-09-04T18:23:09.081Z,100369.44
2022-09-04T18:25:44.052Z,100374.31
2022-09-04T18:28:20.482Z,100380.03
2022-09-04T18:37:10.039Z,100383.00
2022-09-04T18:37:10.141Z,100392.00
2022-09-04T18:37:26.210Z,100393.06
2022-09-04T18:39:42.111Z,100394.09
2022-09-04T18:50:23.776Z,100399.28
2022-09-04T18:50:34.792Z,100390.78
2022-09-04T18:50:39.985Z,100398.44
2022-09-04T18:51:19.301Z,100400.38
2022-09-04T18:53:52.105Z,100403.97
2022-09-04T18:56:26.397Z,100408.34
2022-09-04T18:59:05.136Z,100407.00
2022-09-04T19:01:41.603Z,100411.09
2022-09-04T19:04:35.284Z,100414.91
2022-09-04T19:07:07.672Z,100412.13
2022-09-04T19:09:56.148Z,100411.22
2022-09-04T19:12:36.964Z,100413.03
2022-09-04T19:15:36.862Z,100411.03
2022-09-04T19:18:13.547Z,100418.06
2022-09-04T19:20:47.415Z,100421.28
2022-09-04T19:23:24.664Z,100412.22
2022-09-04T19:25:55.872Z,100428.31
2022-09-04T19:28:28.297Z,100431.81
2022-09-04T19:30:59.565Z,100428.78
2022-09-04T19:33:36.378Z,100428.97
2022-09-04T19:36:10.677Z,100428.94
2022-09-04T19:43:55.764Z,100434.34
2022-09-04T19:46:00.060Z,100429.44
2022-09-04T19:46:14.682Z,100434.34
2022-09-04T19:47:29.832Z,100431.84
2022-09-04T19:53:21.987Z,100437.53
2022-09-04T19:53:24.517Z,100431.72
2022-09-04T19:56:00.241Z,100435.50
2022-09-04T19:58:37.916Z,100443.59
2022-09-04T20:01:14.318Z,100440.31
2022-09-04T20:03:48.854Z,100440.88
2022-09-04T20:06:25.377Z,100444.13
2022-09-04T20:08:59.632Z,100440.84
2022-09-04T20:11:35.684Z,100448.94
2022-09-04T20:14:14.748Z,100448.91
2022-09-04T20:16:57.640Z,100446.44
2022-09-04T20:19:31.160Z,100455.09
2022-09-04T20:22:03.545Z,100453.97
2022-09-04T20:24:39.549Z,100447.13
2022-09-04T20:27:15.540Z,100443.63
2022-09-04T20:29:54.613Z,100451.56
2022-09-04T20:32:27.746Z,100447.19
2022-09-04T20:35:14.046Z,100448.78
2022-09-04T20:37:48.996Z,100452.00
2022-09-04T20:40:31.283Z,100447.56
2022-09-04T20:43:14.722Z,100454.03
2022-09-04T20:48:43.330Z,100452.38
2022-09-04T20:52:52.233Z,100456.28
2022-09-04T20:53:00.039Z,100451.75
2022-09-04T20:54:55.157Z,100457.44
2022-09-04T21:02:31.927Z,100461.13
2022-09-04T21:03:22.692Z,100462.53
2022-09-04T21:03:28.890Z,100465.75
2022-09-04T21:06:22.669Z,100466.25
2022-09-04T21:09:00.032Z,100466.06
2022-09-04T21:11:40.690Z,100467.81
2022-09-04T21:14:17.413Z,100471.81
2022-09-04T21:17:33.974Z,100471.75
2022-09-04T21:20:59.912Z,100469.13
2022-09-04T21:24:03.833Z,100474.16
2022-09-04T21:26:53.158Z,100474.59
2022-09-04T21:29:51.033Z,100473.50
2022-09-04T21:32:36.481Z,100477.63
2022-09-04T21:35:11.970Z,100481.69
2022-09-04T21:37:52.125Z,100486.94
2022-09-04T21:40:51.830Z,100482.91
2022-09-04T21:43:57.890Z,100480.44
2022-09-04T21:46:41.896Z,100495.38
2022-09-04T21:49:30.602Z,100489.50
2022-09-04T21:52:24.628Z,100491.63
2022-09-04T22:00:16.073Z,100497.47
2022-09-04T22:02:27.832Z,100500.19
2022-09-04T22:02:45.675Z,100503.50
2022-09-04T22:04:12.132Z,100504.44
2022-09-04T22:08:20.452Z,100503.03
2022-09-04T22:13:42.100Z,100506.34
2022-09-04T22:13:42.100Z,100507.84
2022-09-04T22:16:06.924Z,100514.50
2022-09-04T22:18:46.634Z,100502.69
2022-09-04T22:21:25.743Z,100513.72
2022-09-04T22:24:35.069Z,100511.72
2022-09-04T22:27:37.710Z,100516.19
2022-09-04T22:30:23.130Z,100521.25
2022-09-04T22:33:48.324Z,100521.41
2022-09-04T22:37:00.836Z,100511.47
2022-09-04T22:39:48.796Z,100523.34
2022-09-04T22:42:41.135Z,100514.03
2022-09-04T22:45:28.923Z,100523.50
2022-09-04T22:48:23.673Z,100505.50
2022-09-04T22:51:06.613Z,100522.31
2022-09-04T22:53:57.168Z,100519.28
2022-09-04T22:56:41.046Z,100525.28
2022-09-04T22:59:28.554Z,100526.72
2022-09-04T23:02:54.220Z,100523.66
2022-09-04T23:05:34.471Z,100524.16
2022-09-04T23:13:48.958Z,100525.69
2022-09-04T23:13:53.899Z,100524.53
2022-09-04T23:14:20.066Z,100525.22
2022-09-04T23:17:11.051Z,100526.78
2022-09-04T23:26:35.670Z,100527.38
2022-09-04T23:26:41.495Z,100534.31
2022-09-04T23:26:44.480Z,100533.94
2022-09-04T23:29:23.260Z,100542.56
2022-09-04T23:32:13.490Z,100541.75
2022-09-04T23:35:15.117Z,100547.53
2022-09-04T23:38:20.065Z,100540.34
2022-09-04T23:40:51.429Z,100543.63
2022-09-04T23:43:50.696Z,100547.41
2022-09-04T23:46:42.627Z,100546.25
2022-09-04T23:49:33.571Z,100549.41
2022-09-04T23:52:07.893Z,100553.44
2022-09-04T23:54:57.718Z,100549.75
2022-09-04T23:57:29.478Z,100552.59
